Mount Washington, Ohio
Current Conditions -  °F | °C
As of 4:53 AM on Wednesday 26 Nov 2014 (Local Time) from KLUK Reporting Station
Clear Clear  
Wind Chill: 21°   Ceiling: Unl
Heat Index: 26°   Visibility: 9mi
Dew Point: 23°   Wind: 5mph
Humidity: 88%   Direction: 40°NE
Pressure: 30.13"   Gusts: NA
Location:  39.077°N, 84.3859°W
Report Text: KLUK 260953Z AUTO 04004KT 9SM CLR M03/M05 A3013 RMK AO2 SLP207 T10331050
Loading
Personal Weather Stations






























Interactive Weather Map New forecast layout! Learn more

10-Day Weather Forecast

Advertisements
Track Severe Weather on mobile